createdAt,value
2023-02-08T00:00:47.300Z,342.43
2023-02-08T00:03:14.456Z,336.30
2023-02-08T00:05:41.708Z,344.77
2023-02-08T00:08:09.208Z,348.60
2023-02-08T00:10:36.201Z,338.83
2023-02-08T00:13:03.644Z,347.53
2023-02-08T00:15:30.620Z,331.60
2023-02-08T00:17:57.725Z,342.27
2023-02-08T00:20:24.807Z,335.17
2023-02-08T00:22:53.246Z,340.87
2023-02-08T00:25:20.991Z,335.83
2023-02-08T00:27:48.342Z,325.37
2023-02-08T00:30:15.579Z,334.33
2023-02-08T00:32:42.690Z,331.73
2023-02-08T00:35:09.712Z,349.73
2023-02-08T00:37:36.786Z,331.93
2023-02-08T00:40:05.955Z,355.07
2023-02-08T00:42:33.540Z,335.33
2023-02-08T00:45:00.610Z,346.67
2023-02-08T00:47:27.885Z,338.33
2023-02-08T00:49:55.300Z,325.90
2023-02-08T00:52:22.624Z,312.73
2023-02-08T00:54:49.803Z,333.00
2023-02-08T00:57:17.112Z,337.07
2023-02-08T00:59:44.117Z,338.30
2023-02-08T01:02:11.610Z,319.63
2023-02-08T01:04:39.065Z,328.03
2023-02-08T01:07:07.387Z,329.60
2023-02-08T01:09:34.855Z,313.10
2023-02-08T01:12:03.186Z,318.60
2023-02-08T01:14:30.309Z,310.60
2023-02-08T01:16:58.717Z,305.13
2023-02-08T01:19:25.786Z,300.67
2023-02-08T01:21:53.024Z,317.43
2023-02-08T01:24:19.957Z,310.37
2023-02-08T01:26:47.075Z,309.07
2023-02-08T01:29:14.538Z,304.67
2023-02-08T01:31:43.069Z,312.07
2023-02-08T01:34:11.985Z,305.33
2023-02-08T01:36:39.773Z,306.57
2023-02-08T01:39:10.185Z,309.63
2023-02-08T01:41:40.771Z,305.77
2023-02-08T01:44:07.970Z,298.20
2023-02-08T01:46:40.623Z,306.10
2023-02-08T01:49:28.907Z,319.00
2023-02-08T01:52:10.132Z,310.00
2023-02-08T01:54:42.104Z,309.70
2023-02-08T01:57:09.714Z,299.50
2023-02-08T02:00:12.242Z,300.57
2023-02-08T02:02:44.062Z,302.80
2023-02-08T02:05:12.221Z,299.20
2023-02-08T02:07:39.706Z,297.27
2023-02-08T02:10:12.470Z,287.57
2023-02-08T02:12:41.586Z,293.87
2023-02-08T02:15:09.840Z,292.97
2023-02-08T02:17:39.157Z,296.27
2023-02-08T02:20:16.079Z,308.67
2023-02-08T02:23:20.577Z,291.43
2023-02-08T02:25:59.383Z,298.50
2023-02-08T02:28:56.780Z,300.90
2023-02-08T02:31:47.731Z,278.13
2023-02-08T02:34:36.095Z,283.13
2023-02-08T02:37:19.692Z,282.23
2023-02-08T02:40:08.667Z,277.67
2023-02-08T02:43:12.453Z,284.20
2023-02-08T02:45:49.168Z,270.97
2023-02-08T02:49:13.520Z,270.87
2023-02-08T02:52:02.026Z,259.70
2023-02-08T02:54:41.022Z,265.57
2023-02-08T02:57:13.505Z,262.23
2023-02-08T02:59:43.047Z,277.17
2023-02-08T03:02:10.518Z,275.87
2023-02-08T03:04:40.821Z,271.63
2023-02-08T03:07:16.093Z,284.43
2023-02-08T03:10:07.455Z,286.10
2023-02-08T03:13:20.616Z,280.40
2023-02-08T03:15:58.566Z,283.53
2023-02-08T03:18:58.913Z,281.33
2023-02-08T03:21:56.054Z,258.00
2023-02-08T03:24:40.978Z,249.67
2023-02-08T03:27:36.225Z,246.73
2023-02-08T03:30:58.913Z,256.27
2023-02-08T03:34:01.943Z,254.97
2023-02-08T03:36:55.956Z,261.37
2023-02-08T03:39:28.445Z,276.07
2023-02-08T03:44:59.654Z,270.10
2023-02-08T03:47:36.974Z,267.87
2023-02-08T03:50:08.945Z,272.30
2023-02-08T03:52:37.329Z,272.10
2023-02-08T03:55:12.253Z,262.93
2023-02-08T03:58:04.591Z,278.60
2023-02-08T04:00:36.722Z,243.93
2023-02-08T04:03:17.693Z,262.97
2023-02-08T04:05:44.868Z,265.73
2023-02-08T04:08:11.809Z,277.77
2023-02-08T04:10:39.521Z,264.70
2023-02-08T04:13:06.744Z,242.90
2023-02-08T04:15:33.832Z,256.20
2023-02-08T04:18:00.804Z,281.63
2023-02-08T04:20:27.972Z,283.93
2023-02-08T04:22:54.901Z,297.67
2023-02-08T04:25:22.090Z,296.40
2023-02-08T04:27:49.208Z,293.67
2023-02-08T04:30:16.511Z,296.27
2023-02-08T04:32:43.749Z,313.73
2023-02-08T04:35:10.849Z,299.10
2023-02-08T04:37:37.884Z,300.00
2023-02-08T04:40:05.224Z,300.00
2023-02-08T04:42:32.405Z,299.37
2023-02-08T04:44:59.504Z,318.23
2023-02-08T04:47:26.600Z,300.93
2023-02-08T04:49:53.541Z,324.10
2023-02-08T04:52:20.532Z,299.30
2023-02-08T04:54:47.595Z,321.50
2023-02-08T04:57:15.042Z,309.57
2023-02-08T04:59:42.171Z,296.13
2023-02-08T05:02:09.912Z,318.43
2023-02-08T05:04:37.058Z,290.57
2023-02-08T05:07:05.309Z,269.77
2023-02-08T05:09:32.546Z,283.23
2023-02-08T05:11:59.699Z,281.30
2023-02-08T05:14:26.724Z,259.13
2023-02-08T05:16:53.802Z,265.87
2023-02-08T05:19:20.943Z,264.93
2023-02-08T05:21:47.888Z,271.27
2023-02-08T05:24:14.846Z,249.97
2023-02-08T05:26:41.919Z,236.53
2023-02-08T05:29:08.922Z,256.63
2023-02-08T05:31:36.436Z,248.00
2023-02-08T05:34:04.011Z,250.87
2023-02-08T05:36:31.089Z,243.67
2023-02-08T05:38:58.209Z,213.77
2023-02-08T05:41:25.231Z,226.67
2023-02-08T05:43:52.540Z,230.07
2023-02-08T05:46:19.645Z,227.27
2023-02-08T05:48:46.830Z,217.87
2023-02-08T05:51:13.914Z,214.77
2023-02-08T05:53:40.924Z,194.67
2023-02-08T05:56:08.092Z,198.73
2023-02-08T05:58:35.309Z,174.53
2023-02-08T06:01:07.451Z,182.80
2023-02-08T06:03:34.581Z,188.90
2023-02-08T06:06:01.777Z,166.23
2023-02-08T06:08:29.045Z,179.97
2023-02-08T06:10:56.166Z,167.83
2023-02-08T06:13:23.231Z,172.30
2023-02-08T06:15:50.195Z,148.37
2023-02-08T06:18:18.734Z,152.57
2023-02-08T06:20:45.706Z,145.00
2023-02-08T06:23:12.721Z,134.90
2023-02-08T06:25:39.783Z,147.83
2023-02-08T06:28:08.924Z,141.07
2023-02-08T06:30:37.181Z,152.00
2023-02-08T06:33:04.912Z,152.13
2023-02-08T06:35:32.844Z,139.03
2023-02-08T06:37:59.932Z,142.33
2023-02-08T06:40:27.006Z,140.80
2023-02-08T06:42:53.970Z,139.57
2023-02-08T06:45:21.079Z,123.83
2023-02-08T06:47:48.221Z,122.80
2023-02-08T06:50:15.318Z,127.03
2023-02-08T06:52:42.338Z,131.90
2023-02-08T06:55:09.650Z,136.60
2023-02-08T06:57:36.712Z,137.57
2023-02-08T07:00:04.838Z,135.63
2023-02-08T07:02:32.479Z,128.80
2023-02-08T07:04:59.641Z,132.13
2023-02-08T07:07:27.585Z,141.33
2023-02-08T07:09:54.692Z,130.57
2023-02-08T07:12:21.887Z,130.30
2023-02-08T07:14:49.004Z,128.60
2023-02-08T07:17:16.044Z,128.70
2023-02-08T07:19:43.179Z,126.80
2023-02-08T07:22:10.249Z,126.37
2023-02-08T07:24:41.404Z,135.33
2023-02-08T07:27:10.823Z,139.90
2023-02-08T07:29:38.654Z,141.23
2023-02-08T07:32:07.398Z,147.57
2023-02-08T07:34:37.351Z,175.13
2023-02-08T07:37:04.687Z,169.30
2023-02-08T07:39:31.843Z,164.73
2023-02-08T07:41:59.658Z,174.50
2023-02-08T07:44:30.862Z,162.17
2023-02-08T07:46:57.877Z,169.93
2023-02-08T07:49:24.983Z,177.67
2023-02-08T07:51:52.065Z,175.83
2023-02-08T07:54:19.323Z,172.63
2023-02-08T07:56:46.582Z,172.47
2023-02-08T07:59:14.777Z,165.07
2023-02-08T08:01:41.910Z,172.50
2023-02-08T08:04:09.020Z,172.80
2023-02-08T08:06:36.689Z,166.80
2023-02-08T08:09:03.867Z,154.67
2023-02-08T08:11:31.015Z,164.50
2023-02-08T08:13:58.334Z,129.67
2023-02-08T08:16:25.741Z,153.43
2023-02-08T08:18:52.922Z,143.77
2023-02-08T08:21:19.970Z,145.03
2023-02-08T08:23:47.061Z,129.90
2023-02-08T08:26:17.722Z,131.87
2023-02-08T08:28:46.896Z,120.10
2023-02-08T08:31:17.782Z,112.53
2023-02-08T08:33:45.210Z,117.23
2023-02-08T08:36:12.430Z,109.00
2023-02-08T08:38:40.330Z,107.27
2023-02-08T08:41:12.681Z,107.57
2023-02-08T08:43:39.792Z,98.40
2023-02-08T08:46:07.782Z,102.97
2023-02-08T08:48:36.666Z,101.60
2023-02-08T08:51:04.182Z,90.30
2023-02-08T08:53:37.144Z,95.40
2023-02-08T08:56:05.461Z,75.67
2023-02-08T08:58:32.556Z,93.30
2023-02-08T09:01:00.526Z,89.33
2023-02-08T09:03:28.570Z,95.33
2023-02-08T09:05:55.954Z,76.90
2023-02-08T09:08:23.263Z,77.53
2023-02-08T09:10:50.350Z,73.90
2023-02-08T09:13:19.945Z,76.77
2023-02-08T09:15:48.827Z,63.93
2023-02-08T09:18:16.346Z,69.33
2023-02-08T09:20:43.982Z,76.90
2023-02-08T09:23:11.890Z,79.23
2023-02-08T09:25:39.079Z,73.13
2023-02-08T09:28:06.361Z,80.43
2023-02-08T09:30:33.671Z,80.30
2023-02-08T09:33:00.736Z,78.73
2023-02-08T09:35:27.936Z,65.93
2023-02-08T09:37:57.936Z,79.87
2023-02-08T09:40:31.651Z,73.83
2023-02-08T09:43:31.051Z,78.37
2023-02-08T09:46:05.553Z,62.40
2023-02-08T09:48:36.542Z,65.80
2023-02-08T09:51:24.703Z,63.13
2023-02-08T09:54:07.587Z,66.27
2023-02-08T09:56:40.435Z,48.37
2023-02-08T09:59:16.250Z,58.33
2023-02-08T10:01:44.499Z,61.27
2023-02-08T10:04:14.209Z,58.03
2023-02-08T10:06:41.831Z,52.83
2023-02-08T10:09:14.659Z,51.47
2023-02-08T10:12:05.973Z,45.87
2023-02-08T10:15:00.228Z,51.77
2023-02-08T10:17:42.072Z,50.80
2023-02-08T10:20:15.389Z,54.17
2023-02-08T10:22:54.642Z,51.30
2023-02-08T10:25:30.878Z,50.43
2023-02-08T10:28:29.018Z,50.90
2023-02-08T10:31:24.431Z,53.70
2023-02-08T10:34:02.110Z,52.60
2023-02-08T10:36:35.853Z,51.93
2023-02-08T10:39:10.030Z,51.10
2023-02-08T10:41:37.616Z,46.53
2023-02-08T10:44:10.678Z,46.43
2023-02-08T10:47:14.884Z,40.93
2023-02-08T10:49:47.876Z,36.53
2023-02-08T10:52:15.017Z,37.63
2023-02-08T10:54:42.277Z,31.37
2023-02-08T10:57:37.130Z,32.73
2023-02-08T11:00:12.011Z,29.40
2023-02-08T11:02:43.557Z,27.80
2023-02-08T11:05:18.159Z,28.57
2023-02-08T11:07:46.077Z,34.50
2023-02-08T11:10:19.303Z,32.50
2023-02-08T11:13:05.734Z,35.27
2023-02-08T11:15:49.926Z,36.30
2023-02-08T11:18:27.909Z,34.80
2023-02-08T11:21:02.234Z,32.80
2023-02-08T11:23:36.390Z,33.90
2023-02-08T11:26:15.874Z,30.60
2023-02-08T11:28:43.822Z,33.23
2023-02-08T11:31:19.569Z,29.37
2023-02-08T11:34:10.645Z,25.97
2023-02-08T11:36:48.997Z,33.70
2023-02-08T11:39:26.963Z,25.73
2023-02-08T11:41:57.625Z,24.77
2023-02-08T11:44:41.989Z,28.10
2023-02-08T11:47:15.220Z,29.77
2023-02-08T11:49:44.293Z,31.87
2023-02-08T11:52:25.118Z,37.67
2023-02-08T11:54:52.779Z,28.70
2023-02-08T11:57:25.295Z,30.13
2023-02-08T12:00:12.890Z,31.23
2023-02-08T12:02:41.006Z,24.30
2023-02-08T12:05:16.191Z,21.43
2023-02-08T12:08:21.550Z,24.97
2023-02-08T12:11:21.779Z,28.40
2023-02-08T12:14:27.522Z,25.53
2023-02-08T12:17:07.110Z,23.93
2023-02-08T12:19:55.033Z,26.47
2023-02-08T12:22:31.735Z,21.37
2023-02-08T12:25:04.394Z,21.10
2023-02-08T12:27:49.713Z,21.30
2023-02-08T12:30:30.470Z,24.20
2023-02-08T12:33:09.638Z,22.33
2023-02-08T12:35:43.557Z,20.50
2023-02-08T12:39:18.870Z,26.63
2023-02-08T12:41:50.115Z,22.73
2023-02-08T12:44:46.559Z,19.83
2023-02-08T12:47:39.560Z,20.57
2023-02-08T12:50:43.422Z,21.90
2023-02-08T12:53:33.052Z,24.73
2023-02-08T12:56:05.682Z,23.20
2023-02-08T12:58:41.799Z,23.60
2023-02-08T13:01:21.317Z,23.30
2023-02-08T13:04:00.500Z,21.87
2023-02-08T13:06:36.314Z,25.37
2023-02-08T13:09:06.639Z,21.40
2023-02-08T13:11:40.372Z,20.63
2023-02-08T13:14:54.044Z,21.67
2023-02-08T13:17:30.595Z,22.50
2023-02-08T13:20:11.546Z,20.93
2023-02-08T13:22:41.814Z,20.00
2023-02-08T13:25:30.921Z,18.43
2023-02-08T13:28:05.122Z,23.23
2023-02-08T13:30:35.346Z,22.67
2023-02-08T13:33:17.705Z,23.43
2023-02-08T13:35:50.280Z,27.23
2023-02-08T13:38:29.728Z,22.97
2023-02-08T13:41:13.302Z,24.97
2023-02-08T13:43:51.695Z,23.07
2023-02-08T13:46:20.500Z,27.73
2023-02-08T13:48:51.352Z,25.73
2023-02-08T13:51:33.893Z,27.47
2023-02-08T13:54:01.108Z,24.67
2023-02-08T13:56:53.649Z,29.00
2023-02-08T13:59:34.187Z,34.43
2023-02-08T14:02:14.577Z,36.47
2023-02-08T14:04:45.619Z,40.93
2023-02-08T14:07:44.907Z,39.43
2023-02-08T14:10:23.156Z,40.23
2023-02-08T14:13:16.935Z,36.63
2023-02-08T14:15:44.613Z,34.87
2023-02-08T14:18:28.856Z,41.47
2023-02-08T14:21:07.542Z,40.07
2023-02-08T14:23:39.471Z,37.53
2023-02-08T14:26:24.135Z,34.90
2023-02-08T14:28:57.040Z,32.83
2023-02-08T14:31:41.056Z,36.27
2023-02-08T14:34:27.886Z,32.97
2023-02-08T14:37:03.683Z,34.73
2023-02-08T14:39:34.646Z,33.97
2023-02-08T14:42:08.957Z,35.83
2023-02-08T14:44:39.330Z,35.43
2023-02-08T14:47:35.389Z,38.07
2023-02-08T14:50:27.838Z,35.83
2023-02-08T14:53:25.804Z,33.63
2023-02-08T14:56:05.442Z,33.60
2023-02-08T14:58:36.766Z,33.80
2023-02-08T15:01:21.100Z,36.87
2023-02-08T15:03:53.620Z,34.90
2023-02-08T15:07:07.912Z,37.50
2023-02-08T15:09:41.919Z,34.93
2023-02-08T15:12:14.469Z,40.53
2023-02-08T15:14:42.732Z,43.77
2023-02-08T15:17:41.240Z,41.73
2023-02-08T15:20:21.587Z,36.27
2023-02-08T15:22:48.968Z,36.07
2023-02-08T15:25:36.578Z,35.90
2023-02-08T15:28:23.653Z,34.53
2023-02-08T15:31:23.273Z,35.00
2023-02-08T15:33:53.315Z,33.03
2023-02-08T15:36:29.581Z,35.93
2023-02-08T15:38:59.354Z,33.27
2023-02-08T15:41:38.275Z,31.40
2023-02-08T15:44:30.169Z,29.73
2023-02-08T15:47:06.064Z,33.47
2023-02-08T15:49:38.092Z,32.57
2023-02-08T15:52:07.624Z,31.47
2023-02-08T15:54:35.241Z,28.57
2023-02-08T15:57:07.204Z,31.17
2023-02-08T15:59:38.781Z,38.03
2023-02-08T16:02:35.418Z,32.27
2023-02-08T16:05:11.702Z,30.87
2023-02-08T16:07:43.407Z,29.47
2023-02-08T16:10:25.535Z,34.80
2023-02-08T16:12:59.372Z,29.07
2023-02-08T16:15:45.142Z,32.00
2023-02-08T16:18:34.269Z,30.23
2023-02-08T16:21:04.242Z,28.97
2023-02-08T16:23:34.217Z,35.83
2023-02-08T16:26:35.266Z,36.27
2023-02-08T16:29:08.065Z,27.80
2023-02-08T16:31:36.066Z,28.20
2023-02-08T16:34:06.176Z,27.30
2023-02-08T16:36:40.428Z,26.30
2023-02-08T16:39:16.719Z,27.63
2023-02-08T16:41:54.452Z,27.20
2023-02-08T16:44:30.708Z,29.63
2023-02-08T16:46:59.357Z,26.53
2023-02-08T16:49:26.855Z,34.03
2023-02-08T16:51:59.105Z,31.63
2023-02-08T16:54:28.446Z,34.20
2023-02-08T16:57:00.035Z,34.30
2023-02-08T16:59:28.068Z,33.90
2023-02-08T17:01:56.579Z,34.27
2023-02-08T17:04:26.842Z,34.83
2023-02-08T17:06:55.583Z,35.73
2023-02-08T17:09:22.742Z,59.17
2023-02-08T17:11:50.018Z,38.53
2023-02-08T17:14:17.938Z,35.73
2023-02-08T17:16:45.069Z,39.03
2023-02-08T17:19:17.432Z,38.10
2023-02-08T17:21:44.768Z,40.93
2023-02-08T17:24:12.132Z,47.00
2023-02-08T17:26:44.122Z,44.10
2023-02-08T17:29:12.322Z,39.97
2023-02-08T17:31:39.550Z,39.83
2023-02-08T17:34:06.653Z,35.73
2023-02-08T17:36:37.096Z,43.63
2023-02-08T17:39:05.582Z,41.47
2023-02-08T17:41:32.721Z,45.50
2023-02-08T17:43:59.949Z,43.70
2023-02-08T17:46:30.579Z,39.97
2023-02-08T17:49:01.885Z,42.27
2023-02-08T17:51:37.936Z,42.40
2023-02-08T17:54:15.585Z,43.97
2023-02-08T17:56:42.809Z,40.63
2023-02-08T17:59:09.884Z,40.17
2023-02-08T18:01:37.171Z,40.53
2023-02-08T18:04:04.465Z,43.90
2023-02-08T18:06:31.806Z,48.60
2023-02-08T18:09:02.476Z,46.40
2023-02-08T18:11:29.800Z,42.20
2023-02-08T18:13:56.845Z,45.40
2023-02-08T18:16:27.790Z,47.93
2023-02-08T18:18:57.043Z,44.60
2023-02-08T18:21:30.196Z,51.10
2023-02-08T18:24:05.083Z,51.77
2023-02-08T18:26:37.130Z,47.07
2023-02-08T18:29:05.002Z,49.30
2023-02-08T18:31:32.992Z,47.57
2023-02-08T18:34:00.234Z,50.97
2023-02-08T18:36:27.488Z,52.93
2023-02-08T18:38:55.894Z,49.50
2023-02-08T18:41:26.319Z,50.13
2023-02-08T18:43:55.636Z,53.00
2023-02-08T18:46:24.408Z,52.13
2023-02-08T18:48:53.866Z,49.43
2023-02-08T18:51:22.713Z,52.50
2023-02-08T18:53:52.485Z,50.27
2023-02-08T18:56:23.023Z,52.20
2023-02-08T18:59:00.755Z,54.17
2023-02-08T19:01:28.208Z,53.80
2023-02-08T19:03:55.863Z,52.90
2023-02-08T19:06:25.410Z,54.83
2023-02-08T19:08:55.643Z,53.37
2023-02-08T19:11:31.894Z,52.30
2023-02-08T19:14:04.543Z,70.40
2023-02-08T19:16:33.349Z,60.47
2023-02-08T19:19:01.301Z,64.67
2023-02-08T19:21:30.145Z,63.20
2023-02-08T19:23:58.337Z,60.27
2023-02-08T19:26:28.686Z,66.27
2023-02-08T19:28:59.236Z,70.07
2023-02-08T19:31:30.875Z,71.00
2023-02-08T19:34:00.859Z,74.30
2023-02-08T19:36:31.238Z,85.13
2023-02-08T19:38:59.137Z,83.70
2023-02-08T19:41:33.502Z,85.53
2023-02-08T19:44:02.140Z,89.50
2023-02-08T19:46:29.441Z,91.47
2023-02-08T19:49:00.314Z,88.97
2023-02-08T19:51:32.315Z,90.40
2023-02-08T19:54:01.178Z,91.53
2023-02-08T19:56:33.988Z,90.63
2023-02-08T19:59:05.269Z,90.97
2023-02-08T20:01:34.311Z,95.83
2023-02-08T20:04:02.265Z,108.20
2023-02-08T20:06:33.711Z,104.43
2023-02-08T20:09:01.926Z,93.37
2023-02-08T20:11:32.176Z,96.00
2023-02-08T20:14:00.847Z,104.50
2023-02-08T20:16:31.558Z,102.17
2023-02-08T20:19:00.234Z,113.10
2023-02-08T20:21:27.945Z,114.77
2023-02-08T20:23:55.243Z,117.03
2023-02-08T20:26:28.638Z,113.37
2023-02-08T20:28:58.258Z,120.17
2023-02-08T20:31:31.362Z,122.97
2023-02-08T20:34:03.354Z,128.20
2023-02-08T20:36:33.418Z,140.90
2023-02-08T20:39:00.701Z,135.70
2023-02-08T20:41:31.305Z,134.00
2023-02-08T20:43:58.523Z,123.83
2023-02-08T20:46:30.944Z,132.47
2023-02-08T20:49:00.295Z,130.37
2023-02-08T20:51:28.699Z,133.33
2023-02-08T20:53:58.519Z,123.37
2023-02-08T20:56:34.414Z,129.53
2023-02-08T20:59:07.131Z,123.47
2023-02-08T21:01:35.575Z,133.47
2023-02-08T21:04:04.507Z,138.37
2023-02-08T21:06:37.634Z,130.53
2023-02-08T21:09:12.529Z,121.17
2023-02-08T21:11:39.908Z,129.43
2023-02-08T21:14:08.157Z,126.10
2023-02-08T21:16:35.243Z,127.53
2023-02-08T21:19:02.578Z,137.90
2023-02-08T21:21:29.970Z,133.27
2023-02-08T21:23:58.039Z,132.63
2023-02-08T21:26:26.749Z,130.10
2023-02-08T21:28:55.528Z,139.23
2023-02-08T21:31:24.075Z,134.83
2023-02-08T21:33:52.796Z,129.00
2023-02-08T21:36:22.784Z,145.73
2023-02-08T21:38:49.909Z,138.73
2023-02-08T21:41:23.716Z,142.80
2023-02-08T21:43:53.873Z,148.73
2023-02-08T21:46:21.437Z,141.87
2023-02-08T21:49:07.314Z,145.10
2023-02-08T21:51:52.872Z,151.30
2023-02-08T21:54:42.772Z,147.50
2023-02-08T21:57:22.149Z,142.27
2023-02-08T21:59:51.936Z,152.27
2023-02-08T22:02:24.654Z,149.47
2023-02-08T22:05:11.928Z,152.00
2023-02-08T22:07:51.257Z,157.33
2023-02-08T22:10:21.990Z,169.63
2023-02-08T22:12:49.695Z,170.13
2023-02-08T22:15:18.576Z,170.77
2023-02-08T22:17:45.998Z,181.53
2023-02-08T22:20:15.003Z,179.57
2023-02-08T22:22:42.223Z,179.93
2023-02-08T22:25:09.735Z,185.10
2023-02-08T22:27:39.101Z,190.17
2023-02-08T22:30:07.727Z,194.73
2023-02-08T22:32:35.001Z,196.07
2023-02-08T22:35:02.411Z,213.10
2023-02-08T22:37:29.643Z,202.47
2023-02-08T22:39:56.799Z,203.97
2023-02-08T22:42:23.966Z,200.50
2023-02-08T22:44:53.360Z,212.40
2023-02-08T22:47:21.474Z,198.80
2023-02-08T22:49:48.830Z,204.50
2023-02-08T22:52:16.150Z,210.33
2023-02-08T22:54:43.592Z,194.40
2023-02-08T22:57:11.226Z,208.20
2023-02-08T22:59:38.977Z,203.77
2023-02-08T23:02:06.094Z,214.20
2023-02-08T23:04:33.414Z,195.77
2023-02-08T23:07:00.925Z,182.67
2023-02-08T23:09:28.283Z,190.40
2023-02-08T23:11:55.399Z,192.60
2023-02-08T23:14:22.763Z,188.33
2023-02-08T23:16:49.879Z,193.07
2023-02-08T23:19:18.564Z,193.70
2023-02-08T23:21:45.656Z,197.83
2023-02-08T23:24:12.892Z,190.73
2023-02-08T23:26:40.768Z,190.60
2023-02-08T23:29:08.093Z,185.07
2023-02-08T23:31:35.313Z,191.37
2023-02-08T23:34:02.442Z,185.33
2023-02-08T23:36:29.581Z,203.33
2023-02-08T23:38:56.611Z,191.83
2023-02-08T23:41:24.050Z,192.77
2023-02-08T23:43:52.248Z,197.40
2023-02-08T23:46:24.749Z,199.90
2023-02-08T23:48:52.662Z,189.60
2023-02-08T23:51:22.222Z,209.73
2023-02-08T23:53:50.069Z,215.00
2023-02-08T23:56:28.926Z,193.47
2023-02-08T23:58:58.157Z,193.93
